sensor_id;sensor_type;location;lat;lon;timestamp;temperature;humidity
46676;DHT22;32412;51.478;5.694;2024-01-30T00:01:52;7.60;99.90
46676;DHT22;32412;51.478;5.694;2024-01-30T00:04:18;7.70;99.90
46676;DHT22;32412;51.478;5.694;2024-01-30T00:06:44;7.70;99.90
46676;DHT22;32412;51.478;5.694;2024-01-30T00:09:09;7.70;99.90
46676;DHT22;32412;51.478;5.694;2024-01-30T00:11:36;7.60;99.90
46676;DHT22;32412;51.478;5.694;2024-01-30T00:14:02;7.60;99.90
46676;DHT22;32412;51.478;5.694;2024-01-30T00:16:28;7.50;99.90
46676;DHT22;32412;51.478;5.694;2024-01-30T00:18:54;7.50;99.90
46676;DHT22;32412;51.478;5.694;2024-01-30T00:21:20;7.50;99.90
46676;DHT22;32412;51.478;5.694;2024-01-30T00:23:46;7.50;99.90
46676;DHT22;32412;51.478;5.694;2024-01-30T00:26:12;7.50;99.90
46676;DHT22;32412;51.478;5.694;2024-01-30T00:28:38;7.40;99.90
46676;DHT22;32412;51.478;5.694;2024-01-30T00:31:04;7.40;99.90
46676;DHT22;32412;51.478;5.694;2024-01-30T00:33:30;7.40;99.90
46676;DHT22;32412;51.478;5.694;2024-01-30T00:35:56;7.40;99.90
46676;DHT22;32412;51.478;5.694;2024-01-30T00:38:22;7.40;99.90
46676;DHT22;32412;51.478;5.694;2024-01-30T00:40:48;7.40;99.90
46676;DHT22;32412;51.478;5.694;2024-01-30T00:43:14;7.40;99.90
46676;DHT22;32412;51.478;5.694;2024-01-30T00:45:39;7.30;99.90
46676;DHT22;32412;51.478;5.694;2024-01-30T00:48:05;7.30;99.90
46676;DHT22;32412;51.478;5.694;2024-01-30T00:50:31;7.30;99.90
46676;DHT22;32412;51.478;5.694;2024-01-30T00:52:57;7.30;99.90
46676;DHT22;32412;51.478;5.694;2024-01-30T00:55:22;7.30;99.90
46676;DHT22;32412;51.478;5.694;2024-01-30T00:57:48;7.30;99.90
46676;DHT22;32412;51.478;5.694;2024-01-30T01:00:14;7.30;99.90
46676;DHT22;32412;51.478;5.694;2024-01-30T01:02:42;7.30;99.90
46676;DHT22;32412;51.478;5.694;2024-01-30T01:05:08;7.30;99.90
46676;DHT22;32412;51.478;5.694;2024-01-30T01:07:34;7.30;99.90
46676;DHT22;32412;51.478;5.694;2024-01-30T01:10:00;7.30;99.90
46676;DHT22;32412;51.478;5.694;2024-01-30T01:12:26;7.30;99.90
46676;DHT22;32412;51.478;5.694;2024-01-30T01:14:51;7.30;99.90
46676;DHT22;32412;51.478;5.694;2024-01-30T01:17:17;7.20;99.90
46676;DHT22;32412;51.478;5.694;2024-01-30T01:19:44;7.30;99.90
46676;DHT22;32412;51.478;5.694;2024-01-30T01:22:09;7.20;99.90
46676;DHT22;32412;51.478;5.694;2024-01-30T01:24:36;7.20;99.90
46676;DHT22;32412;51.478;5.694;2024-01-30T01:27:02;7.20;99.90
46676;DHT22;32412;51.478;5.694;2024-01-30T01:29:28;7.10;99.90
46676;DHT22;32412;51.478;5.694;2024-01-30T01:31:56;7.10;99.90
46676;DHT22;32412;51.478;5.694;2024-01-30T01:34:22;7.10;99.90
46676;DHT22;32412;51.478;5.694;2024-01-30T01:36:49;7.10;99.90
46676;DHT22;32412;51.478;5.694;2024-01-30T01:39:15;7.10;99.90
46676;DHT22;32412;51.478;5.694;2024-01-30T01:41:41;7.10;99.90
46676;DHT22;32412;51.478;5.694;2024-01-30T01:44:07;7.10;99.90
46676;DHT22;32412;51.478;5.694;2024-01-30T01:46:34;7.10;99.90
46676;DHT22;32412;51.478;5.694;2024-01-30T01:49:04;7.10;99.90
46676;DHT22;32412;51.478;5.694;2024-01-30T01:51:32;7.10;99.90
46676;DHT22;32412;51.478;5.694;2024-01-30T01:54:04;7.10;99.90
46676;DHT22;32412;51.478;5.694;2024-01-30T01:56:30;7.10;99.90
46676;DHT22;32412;51.478;5.694;2024-01-30T01:59:05;7.10;99.90
46676;DHT22;32412;51.478;5.694;2024-01-30T02:01:33;7.20;99.90
46676;DHT22;32412;51.478;5.694;2024-01-30T02:03:59;7.20;99.90
46676;DHT22;32412;51.478;5.694;2024-01-30T02:06:26;7.20;99.90
46676;DHT22;32412;51.478;5.694;2024-01-30T02:08:52;7.20;99.90
46676;DHT22;32412;51.478;5.694;2024-01-30T02:11:19;7.20;99.90
46676;DHT22;32412;51.478;5.694;2024-01-30T02:13:45;7.20;99.90
46676;DHT22;32412;51.478;5.694;2024-01-30T02:16:11;7.20;99.90
46676;DHT22;32412;51.478;5.694;2024-01-30T02:18:36;7.30;99.90
46676;DHT22;32412;51.478;5.694;2024-01-30T02:21:07;7.20;99.90
46676;DHT22;32412;51.478;5.694;2024-01-30T02:23:34;7.20;99.90
46676;DHT22;32412;51.478;5.694;2024-01-30T02:26:00;7.20;99.90
46676;DHT22;32412;51.478;5.694;2024-01-30T02:28:26;7.20;99.90
46676;DHT22;32412;51.478;5.694;2024-01-30T02:30:53;7.20;99.90
46676;DHT22;32412;51.478;5.694;2024-01-30T02:33:19;7.20;99.90
46676;DHT22;32412;51.478;5.694;2024-01-30T02:35:45;7.10;99.90
46676;DHT22;32412;51.478;5.694;2024-01-30T02:38:10;7.10;99.90
46676;DHT22;32412;51.478;5.694;2024-01-30T02:40:36;7.20;99.90
46676;DHT22;32412;51.478;5.694;2024-01-30T02:43:05;7.20;99.90
46676;DHT22;32412;51.478;5.694;2024-01-30T02:45:30;7.10;99.90
46676;DHT22;32412;51.478;5.694;2024-01-30T02:47:57;7.00;99.90
46676;DHT22;32412;51.478;5.694;2024-01-30T02:50:22;7.10;99.90
46676;DHT22;32412;51.478;5.694;2024-01-30T02:52:48;7.10;99.90
46676;DHT22;32412;51.478;5.694;2024-01-30T02:55:14;7.10;99.90
46676;DHT22;32412;51.478;5.694;2024-01-30T02:57:42;7.20;99.90
46676;DHT22;32412;51.478;5.694;2024-01-30T03:00:08;7.10;99.90
46676;DHT22;32412;51.478;5.694;2024-01-30T03:02:35;7.10;99.90
46676;DHT22;32412;51.478;5.694;2024-01-30T03:05:01;7.10;99.90
46676;DHT22;32412;51.478;5.694;2024-01-30T03:07:27;7.20;99.90
46676;DHT22;32412;51.478;5.694;2024-01-30T03:09:52;7.20;99.90
46676;DHT22;32412;51.478;5.694;2024-01-30T03:12:18;7.20;99.90
46676;DHT22;32412;51.478;5.694;2024-01-30T03:14:44;7.30;99.90
46676;DHT22;32412;51.478;5.694;2024-01-30T03:17:09;7.30;99.90
46676;DHT22;32412;51.478;5.694;2024-01-30T03:19:35;7.30;99.90
46676;DHT22;32412;51.478;5.694;2024-01-30T03:22:00;7.30;99.90
46676;DHT22;32412;51.478;5.694;2024-01-30T03:24:26;7.30;99.90
46676;DHT22;32412;51.478;5.694;2024-01-30T03:26:52;7.30;99.90
46676;DHT22;32412;51.478;5.694;2024-01-30T03:29:18;7.30;99.90
46676;DHT22;32412;51.478;5.694;2024-01-30T03:31:44;7.30;99.90
46676;DHT22;32412;51.478;5.694;2024-01-30T03:34:09;7.30;99.90
46676;DHT22;32412;51.478;5.694;2024-01-30T03:36:35;7.30;99.90
46676;DHT22;32412;51.478;5.694;2024-01-30T03:39:01;7.30;99.90
46676;DHT22;32412;51.478;5.694;2024-01-30T03:41:27;7.20;99.90
46676;DHT22;32412;51.478;5.694;2024-01-30T03:43:52;7.20;99.90
46676;DHT22;32412;51.478;5.694;2024-01-30T03:46:18;7.20;99.90
46676;DHT22;32412;51.478;5.694;2024-01-30T03:48:45;7.20;99.90
46676;DHT22;32412;51.478;5.694;2024-01-30T03:51:11;7.20;99.90
46676;DHT22;32412;51.478;5.694;2024-01-30T03:53:42;7.30;99.90
46676;DHT22;32412;51.478;5.694;2024-01-30T03:56:08;7.20;99.90
46676;DHT22;32412;51.478;5.694;2024-01-30T03:58:34;7.20;99.90
46676;DHT22;32412;51.478;5.694;2024-01-30T04:00:59;7.30;99.90
46676;DHT22;32412;51.478;5.694;2024-01-30T04:03:25;7.30;99.90
46676;DHT22;32412;51.478;5.694;2024-01-30T04:05:54;7.40;99.90
46676;DHT22;32412;51.478;5.694;2024-01-30T04:08:20;7.50;99.90
46676;DHT22;32412;51.478;5.694;2024-01-30T04:11:03;7.50;99.90
46676;DHT22;32412;51.478;5.694;2024-01-30T04:13:35;7.60;99.90
46676;DHT22;32412;51.478;5.694;2024-01-30T04:16:01;7.60;99.90
46676;DHT22;32412;51.478;5.694;2024-01-30T04:18:28;7.70;99.90
46676;DHT22;32412;51.478;5.694;2024-01-30T04:20:54;7.70;99.90
46676;DHT22;32412;51.478;5.694;2024-01-30T04:23:20;7.60;99.90
46676;DHT22;32412;51.478;5.694;2024-01-30T04:25:45;7.60;99.90
46676;DHT22;32412;51.478;5.694;2024-01-30T04:28:11;7.60;99.90
46676;DHT22;32412;51.478;5.694;2024-01-30T04:30:38;7.60;99.90
46676;DHT22;32412;51.478;5.694;2024-01-30T04:33:04;7.60;99.90
46676;DHT22;32412;51.478;5.694;2024-01-30T04:35:29;7.60;99.90
46676;DHT22;32412;51.478;5.694;2024-01-30T04:37:55;7.60;99.90
46676;DHT22;32412;51.478;5.694;2024-01-30T04:40:21;7.60;99.90
46676;DHT22;32412;51.478;5.694;2024-01-30T04:42:47;7.60;99.90
46676;DHT22;32412;51.478;5.694;2024-01-30T04:45:12;7.60;99.90
46676;DHT22;32412;51.478;5.694;2024-01-30T04:47:38;7.60;99.90
46676;DHT22;32412;51.478;5.694;2024-01-30T04:50:06;7.60;99.90
46676;DHT22;32412;51.478;5.694;2024-01-30T04:52:32;7.60;99.90
46676;DHT22;32412;51.478;5.694;2024-01-30T04:54:58;7.60;99.90
46676;DHT22;32412;51.478;5.694;2024-01-30T04:57:23;7.60;99.90
46676;DHT22;32412;51.478;5.694;2024-01-30T04:59:49;7.60;99.90
46676;DHT22;32412;51.478;5.694;2024-01-30T05:02:15;7.70;99.90
46676;DHT22;32412;51.478;5.694;2024-01-30T05:04:41;7.70;99.90
46676;DHT22;32412;51.478;5.694;2024-01-30T05:07:07;7.70;99.90
46676;DHT22;32412;51.478;5.694;2024-01-30T05:09:34;7.70;99.90
46676;DHT22;32412;51.478;5.694;2024-01-30T05:11:59;7.80;99.90
46676;DHT22;32412;51.478;5.694;2024-01-30T05:14:25;7.80;99.90
46676;DHT22;32412;51.478;5.694;2024-01-30T05:16:51;7.80;99.90
46676;DHT22;32412;51.478;5.694;2024-01-30T05:19:16;7.80;99.90
46676;DHT22;32412;51.478;5.694;2024-01-30T05:21:42;7.90;99.90
46676;DHT22;32412;51.478;5.694;2024-01-30T05:24:08;7.90;99.90
46676;DHT22;32412;51.478;5.694;2024-01-30T05:26:35;7.90;99.90
46676;DHT22;32412;51.478;5.694;2024-01-30T05:29:01;7.90;99.90
46676;DHT22;32412;51.478;5.694;2024-01-30T05:31:27;7.90;99.90
46676;DHT22;32412;51.478;5.694;2024-01-30T05:33:54;8.00;99.90
46676;DHT22;32412;51.478;5.694;2024-01-30T05:36:19;8.00;99.90
46676;DHT22;32412;51.478;5.694;2024-01-30T05:38:46;8.10;99.90
46676;DHT22;32412;51.478;5.694;2024-01-30T05:41:11;8.10;99.90
46676;DHT22;32412;51.478;5.694;2024-01-30T05:43:37;8.10;99.90
46676;DHT22;32412;51.478;5.694;2024-01-30T05:46:03;8.10;99.90
46676;DHT22;32412;51.478;5.694;2024-01-30T05:48:28;8.10;99.90
46676;DHT22;32412;51.478;5.694;2024-01-30T05:50:54;8.10;99.90
46676;DHT22;32412;51.478;5.694;2024-01-30T05:53:20;8.10;99.90
46676;DHT22;32412;51.478;5.694;2024-01-30T05:55:45;8.10;99.90
46676;DHT22;32412;51.478;5.694;2024-01-30T05:58:11;8.10;99.90
46676;DHT22;32412;51.478;5.694;2024-01-30T06:00:37;8.10;99.90
46676;DHT22;32412;51.478;5.694;2024-01-30T06:03:03;8.10;99.90
46676;DHT22;32412;51.478;5.694;2024-01-30T06:05:28;8.10;99.90
46676;DHT22;32412;51.478;5.694;2024-01-30T06:07:54;8.10;99.90
46676;DHT22;32412;51.478;5.694;2024-01-30T06:10:19;8.20;99.90
46676;DHT22;32412;51.478;5.694;2024-01-30T06:12:45;8.20;99.90
46676;DHT22;32412;51.478;5.694;2024-01-30T06:15:11;8.20;99.90
46676;DHT22;32412;51.478;5.694;2024-01-30T06:17:38;8.20;99.90
46676;DHT22;32412;51.478;5.694;2024-01-30T06:20:05;8.20;99.90
46676;DHT22;32412;51.478;5.694;2024-01-30T06:22:31;8.20;99.90
46676;DHT22;32412;51.478;5.694;2024-01-30T06:24:56;8.10;99.90
46676;DHT22;32412;51.478;5.694;2024-01-30T06:27:22;8.20;99.90
46676;DHT22;32412;51.478;5.694;2024-01-30T06:29:48;8.20;99.90
46676;DHT22;32412;51.478;5.694;2024-01-30T06:32:13;8.10;99.90
46676;DHT22;32412;51.478;5.694;2024-01-30T06:34:41;8.10;99.90
46676;DHT22;32412;51.478;5.694;2024-01-30T06:37:06;8.10;99.90
46676;DHT22;32412;51.478;5.694;2024-01-30T06:39:32;8.20;99.90
46676;DHT22;32412;51.478;5.694;2024-01-30T06:41:58;8.20;99.90
46676;DHT22;32412;51.478;5.694;2024-01-30T06:44:23;8.20;99.90
46676;DHT22;32412;51.478;5.694;2024-01-30T06:46:49;8.20;99.90
46676;DHT22;32412;51.478;5.694;2024-01-30T06:49:15;8.20;99.90
46676;DHT22;32412;51.478;5.694;2024-01-30T06:51:40;8.20;99.90
46676;DHT22;32412;51.478;5.694;2024-01-30T06:54:06;8.20;99.90
46676;DHT22;32412;51.478;5.694;2024-01-30T06:56:32;8.20;99.90
46676;DHT22;32412;51.478;5.694;2024-01-30T06:58:57;8.20;99.90
46676;DHT22;32412;51.478;5.694;2024-01-30T07:01:30;8.20;99.90
46676;DHT22;32412;51.478;5.694;2024-01-30T07:03:57;8.20;99.90
46676;DHT22;32412;51.478;5.694;2024-01-30T07:06:23;8.30;99.90
46676;DHT22;32412;51.478;5.694;2024-01-30T07:08:51;8.40;99.90
46676;DHT22;32412;51.478;5.694;2024-01-30T07:11:21;8.40;99.90
46676;DHT22;32412;51.478;5.694;2024-01-30T07:13:53;8.40;99.90
46676;DHT22;32412;51.478;5.694;2024-01-30T07:16:19;8.50;99.90
46676;DHT22;32412;51.478;5.694;2024-01-30T07:18:45;8.60;99.90
46676;DHT22;32412;51.478;5.694;2024-01-30T07:21:11;8.80;99.90
46676;DHT22;32412;51.478;5.694;2024-01-30T07:23:37;8.80;99.90
46676;DHT22;32412;51.478;5.694;2024-01-30T07:26:05;8.90;99.90
46676;DHT22;32412;51.478;5.694;2024-01-30T07:28:32;9.00;99.90
46676;DHT22;32412;51.478;5.694;2024-01-30T07:30:58;9.10;99.90
46676;DHT22;32412;51.478;5.694;2024-01-30T07:33:24;9.10;99.90
46676;DHT22;32412;51.478;5.694;2024-01-30T07:35:51;9.20;99.90
46676;DHT22;32412;51.478;5.694;2024-01-30T07:38:17;9.30;99.90
46676;DHT22;32412;51.478;5.694;2024-01-30T07:40:43;9.30;99.90
46676;DHT22;32412;51.478;5.694;2024-01-30T07:43:09;9.30;99.90
46676;DHT22;32412;51.478;5.694;2024-01-30T07:45:34;9.40;99.90
46676;DHT22;32412;51.478;5.694;2024-01-30T07:48:00;9.40;99.90
46676;DHT22;32412;51.478;5.694;2024-01-30T07:50:26;9.50;99.90
46676;DHT22;32412;51.478;5.694;2024-01-30T07:52:52;9.50;99.90
46676;DHT22;32412;51.478;5.694;2024-01-30T07:55:23;9.50;99.90
46676;DHT22;32412;51.478;5.694;2024-01-30T07:57:56;9.60;99.90
46676;DHT22;32412;51.478;5.694;2024-01-30T08:00:22;9.60;99.90
46676;DHT22;32412;51.478;5.694;2024-01-30T08:02:48;9.60;99.90
46676;DHT22;32412;51.478;5.694;2024-01-30T08:05:14;9.70;99.90
46676;DHT22;32412;51.478;5.694;2024-01-30T08:07:43;9.70;99.90
46676;DHT22;32412;51.478;5.694;2024-01-30T08:10:11;9.70;99.90
46676;DHT22;32412;51.478;5.694;2024-01-30T08:12:37;9.80;99.90
46676;DHT22;32412;51.478;5.694;2024-01-30T08:15:04;9.80;99.90
46676;DHT22;32412;51.478;5.694;2024-01-30T08:17:29;9.90;99.90
46676;DHT22;32412;51.478;5.694;2024-01-30T08:19:55;9.90;99.90
46676;DHT22;32412;51.478;5.694;2024-01-30T08:22:21;9.90;99.90
46676;DHT22;32412;51.478;5.694;2024-01-30T08:24:47;9.90;99.90
46676;DHT22;32412;51.478;5.694;2024-01-30T08:27:12;10.00;99.90
46676;DHT22;32412;51.478;5.694;2024-01-30T08:29:38;10.00;99.90
46676;DHT22;32412;51.478;5.694;2024-01-30T08:32:07;10.00;99.90
46676;DHT22;32412;51.478;5.694;2024-01-30T08:34:33;10.00;99.90
46676;DHT22;32412;51.478;5.694;2024-01-30T08:36:58;10.00;99.90
46676;DHT22;32412;51.478;5.694;2024-01-30T08:39:24;10.00;99.90
46676;DHT22;32412;51.478;5.694;2024-01-30T08:41:50;10.10;99.90
46676;DHT22;32412;51.478;5.694;2024-01-30T08:44:16;10.20;99.90
46676;DHT22;32412;51.478;5.694;2024-01-30T08:46:43;10.20;99.90
46676;DHT22;32412;51.478;5.694;2024-01-30T08:49:10;10.30;99.90
46676;DHT22;32412;51.478;5.694;2024-01-30T08:51:36;10.30;99.90
46676;DHT22;32412;51.478;5.694;2024-01-30T08:54:02;10.40;99.90
46676;DHT22;32412;51.478;5.694;2024-01-30T08:56:28;10.40;99.90
46676;DHT22;32412;51.478;5.694;2024-01-30T08:58:54;10.50;99.90
46676;DHT22;32412;51.478;5.694;2024-01-30T09:01:19;10.50;99.90
46676;DHT22;32412;51.478;5.694;2024-01-30T09:03:45;10.50;99.90
46676;DHT22;32412;51.478;5.694;2024-01-30T09:06:14;10.50;99.90
46676;DHT22;32412;51.478;5.694;2024-01-30T09:08:40;10.60;99.90
46676;DHT22;32412;51.478;5.694;2024-01-30T09:11:13;10.70;99.90
46676;DHT22;32412;51.478;5.694;2024-01-30T09:13:39;10.70;99.90
46676;DHT22;32412;51.478;5.694;2024-01-30T09:16:05;10.70;99.90
46676;DHT22;32412;51.478;5.694;2024-01-30T09:18:31;10.70;99.90
46676;DHT22;32412;51.478;5.694;2024-01-30T09:20:57;10.80;99.90
46676;DHT22;32412;51.478;5.694;2024-01-30T09:23:24;10.80;99.90
46676;DHT22;32412;51.478;5.694;2024-01-30T09:25:52;10.90;99.90
46676;DHT22;32412;51.478;5.694;2024-01-30T09:28:17;10.90;99.90
46676;DHT22;32412;51.478;5.694;2024-01-30T09:40:08;11.10;99.90
46676;DHT22;32412;51.478;5.694;2024-01-30T09:42:36;11.10;99.90
46676;DHT22;32412;51.478;5.694;2024-01-30T09:45:08;11.10;99.90
46676;DHT22;32412;51.478;5.694;2024-01-30T09:47:39;11.10;99.90
46676;DHT22;32412;51.478;5.694;2024-01-30T09:50:06;11.00;99.90
46676;DHT22;32412;51.478;5.694;2024-01-30T09:52:32;11.00;99.90
46676;DHT22;32412;51.478;5.694;2024-01-30T09:55:00;11.00;99.90
46676;DHT22;32412;51.478;5.694;2024-01-30T09:57:26;11.00;99.90
46676;DHT22;32412;51.478;5.694;2024-01-30T09:59:52;11.10;99.90
46676;DHT22;32412;51.478;5.694;2024-01-30T10:02:20;11.10;99.90
46676;DHT22;32412;51.478;5.694;2024-01-30T10:04:49;11.10;99.90
46676;DHT22;32412;51.478;5.694;2024-01-30T10:07:16;11.20;99.90
46676;DHT22;32412;51.478;5.694;2024-01-30T10:09:41;11.20;99.90
46676;DHT22;32412;51.478;5.694;2024-01-30T10:12:17;11.20;99.90
46676;DHT22;32412;51.478;5.694;2024-01-30T10:14:47;11.20;99.90
46676;DHT22;32412;51.478;5.694;2024-01-30T10:17:13;11.30;99.90
46676;DHT22;32412;51.478;5.694;2024-01-30T10:19:40;11.50;99.90
46676;DHT22;32412;51.478;5.694;2024-01-30T10:22:07;11.60;99.90
46676;DHT22;32412;51.478;5.694;2024-01-30T10:24:36;11.80;99.90
46676;DHT22;32412;51.478;5.694;2024-01-30T10:27:02;12.00;99.90
46676;DHT22;32412;51.478;5.694;2024-01-30T10:29:28;12.10;99.90
46676;DHT22;32412;51.478;5.694;2024-01-30T10:32:01;12.20;99.90
46676;DHT22;32412;51.478;5.694;2024-01-30T10:34:28;12.10;99.90
46676;DHT22;32412;51.478;5.694;2024-01-30T10:37:07;12.10;99.90
46676;DHT22;32412;51.478;5.694;2024-01-30T10:39:38;12.10;99.90
46676;DHT22;32412;51.478;5.694;2024-01-30T10:42:05;12.00;99.90
46676;DHT22;32412;51.478;5.694;2024-01-30T10:44:37;11.90;99.90
46676;DHT22;32412;51.478;5.694;2024-01-30T10:47:12;11.90;99.90
46676;DHT22;32412;51.478;5.694;2024-01-30T10:49:40;11.90;99.90
46676;DHT22;32412;51.478;5.694;2024-01-30T10:52:08;11.90;99.90
46676;DHT22;32412;51.478;5.694;2024-01-30T10:54:35;11.90;99.90
46676;DHT22;32412;51.478;5.694;2024-01-30T10:57:02;11.90;99.90
46676;DHT22;32412;51.478;5.694;2024-01-30T10:59:30;12.00;99.90
46676;DHT22;32412;51.478;5.694;2024-01-30T11:01:57;12.10;99.90
46676;DHT22;32412;51.478;5.694;2024-01-30T11:04:24;12.10;99.90
46676;DHT22;32412;51.478;5.694;2024-01-30T11:06:51;12.10;99.90
46676;DHT22;32412;51.478;5.694;2024-01-30T11:09:18;12.10;99.90
46676;DHT22;32412;51.478;5.694;2024-01-30T11:11:59;12.10;99.90
46676;DHT22;32412;51.478;5.694;2024-01-30T11:14:26;12.10;99.90
46676;DHT22;32412;51.478;5.694;2024-01-30T11:16:52;12.10;99.90
46676;DHT22;32412;51.478;5.694;2024-01-30T11:19:30;12.20;99.90
46676;DHT22;32412;51.478;5.694;2024-01-30T11:21:56;12.30;99.90
46676;DHT22;32412;51.478;5.694;2024-01-30T11:24:27;12.40;99.90
46676;DHT22;32412;51.478;5.694;2024-01-30T11:26:56;12.60;99.90
46676;DHT22;32412;51.478;5.694;2024-01-30T11:29:27;12.70;99.90
46676;DHT22;32412;51.478;5.694;2024-01-30T11:31:57;12.80;99.90
46676;DHT22;32412;51.478;5.694;2024-01-30T11:34:23;12.80;99.90
46676;DHT22;32412;51.478;5.694;2024-01-30T11:36:56;12.70;99.90
46676;DHT22;32412;51.478;5.694;2024-01-30T11:39:25;12.60;99.90
46676;DHT22;32412;51.478;5.694;2024-01-30T11:41:54;12.50;99.90
46676;DHT22;32412;51.478;5.694;2024-01-30T11:47:44;12.40;99.90
46676;DHT22;32412;51.478;5.694;2024-01-30T11:50:16;12.50;99.90
46676;DHT22;32412;51.478;5.694;2024-01-30T11:52:42;12.60;99.90
46676;DHT22;32412;51.478;5.694;2024-01-30T11:55:10;12.60;99.90
46676;DHT22;32412;51.478;5.694;2024-01-30T12:00:59;12.80;99.90
46676;DHT22;32412;51.478;5.694;2024-01-30T12:03:28;12.80;99.90
46676;DHT22;32412;51.478;5.694;2024-01-30T12:09:17;12.70;99.90
46676;DHT22;32412;51.478;5.694;2024-01-30T12:15:11;13.20;99.90
46676;DHT22;32412;51.478;5.694;2024-01-30T12:17:38;13.10;99.90
46676;DHT22;32412;51.478;5.694;2024-01-30T12:20:05;13.10;99.90
46676;DHT22;32412;51.478;5.694;2024-01-30T12:22:42;13.10;99.90
46676;DHT22;32412;51.478;5.694;2024-01-30T12:25:15;13.10;99.90
46676;DHT22;32412;51.478;5.694;2024-01-30T12:27:46;13.00;99.90
46676;DHT22;32412;51.478;5.694;2024-01-30T12:30:16;13.00;99.90
46676;DHT22;32412;51.478;5.694;2024-01-30T12:32:43;12.90;99.90
46676;DHT22;32412;51.478;5.694;2024-01-30T12:35:14;12.90;99.90
46676;DHT22;32412;51.478;5.694;2024-01-30T12:37:40;12.90;99.90
46676;DHT22;32412;51.478;5.694;2024-01-30T12:40:10;13.00;99.90
46676;DHT22;32412;51.478;5.694;2024-01-30T12:42:37;13.50;99.90
46676;DHT22;32412;51.478;5.694;2024-01-30T12:45:04;14.10;99.90
46676;DHT22;32412;51.478;5.694;2024-01-30T12:47:30;14.20;99.90
46676;DHT22;32412;51.478;5.694;2024-01-30T12:49:55;13.50;99.90
46676;DHT22;32412;51.478;5.694;2024-01-30T12:52:22;12.80;99.90
46676;DHT22;32412;51.478;5.694;2024-01-30T12:54:48;12.50;99.90
46676;DHT22;32412;51.478;5.694;2024-01-30T12:57:14;12.20;99.90
46676;DHT22;32412;51.478;5.694;2024-01-30T12:59:40;12.10;99.90
46676;DHT22;32412;51.478;5.694;2024-01-30T13:02:06;12.00;99.90
46676;DHT22;32412;51.478;5.694;2024-01-30T13:04:32;12.70;99.90
46676;DHT22;32412;51.478;5.694;2024-01-30T13:06:58;13.50;99.90
46676;DHT22;32412;51.478;5.694;2024-01-30T13:09:26;14.40;99.90
46676;DHT22;32412;51.478;5.694;2024-01-30T13:11:52;14.60;99.90
46676;DHT22;32412;51.478;5.694;2024-01-30T13:14:18;14.40;99.90
46676;DHT22;32412;51.478;5.694;2024-01-30T13:16:44;14.10;99.90
46676;DHT22;32412;51.478;5.694;2024-01-30T13:19:10;13.80;99.90
46676;DHT22;32412;51.478;5.694;2024-01-30T13:21:35;13.60;99.90
46676;DHT22;32412;51.478;5.694;2024-01-30T13:24:01;13.30;99.90
46676;DHT22;32412;51.478;5.694;2024-01-30T13:26:27;12.80;99.90
46676;DHT22;32412;51.478;5.694;2024-01-30T13:28:53;12.60;99.90
46676;DHT22;32412;51.478;5.694;2024-01-30T13:31:19;12.10;99.90
46676;DHT22;32412;51.478;5.694;2024-01-30T13:33:45;11.90;99.90
46676;DHT22;32412;51.478;5.694;2024-01-30T13:36:11;11.80;99.90
46676;DHT22;32412;51.478;5.694;2024-01-30T13:38:37;12.10;99.90
46676;DHT22;32412;51.478;5.694;2024-01-30T13:41:03;12.20;99.90
46676;DHT22;32412;51.478;5.694;2024-01-30T13:43:29;12.00;99.90
46676;DHT22;32412;51.478;5.694;2024-01-30T13:45:54;11.80;99.90
46676;DHT22;32412;51.478;5.694;2024-01-30T13:48:20;12.00;99.90
46676;DHT22;32412;51.478;5.694;2024-01-30T13:50:47;12.70;99.90
46676;DHT22;32412;51.478;5.694;2024-01-30T13:53:13;13.10;99.90
46676;DHT22;32412;51.478;5.694;2024-01-30T13:55:38;13.60;99.90
46676;DHT22;32412;51.478;5.694;2024-01-30T13:58:05;14.00;98.80
46676;DHT22;32412;51.478;5.694;2024-01-30T14:00:31;14.40;98.10
46676;DHT22;32412;51.478;5.694;2024-01-30T14:02:56;14.50;98.20
46676;DHT22;32412;51.478;5.694;2024-01-30T14:05:24;14.40;97.80
46676;DHT22;32412;51.478;5.694;2024-01-30T14:07:50;14.00;98.30
46676;DHT22;32412;51.478;5.694;2024-01-30T14:10:16;13.70;98.70
46676;DHT22;32412;51.478;5.694;2024-01-30T14:12:42;13.10;99.60
46676;DHT22;32412;51.478;5.694;2024-01-30T14:15:13;12.60;99.90
46676;DHT22;32412;51.478;5.694;2024-01-30T14:17:40;12.20;99.90
46676;DHT22;32412;51.478;5.694;2024-01-30T14:20:07;12.00;99.90
46676;DHT22;32412;51.478;5.694;2024-01-30T14:22:33;11.90;99.90
46676;DHT22;32412;51.478;5.694;2024-01-30T14:25:02;11.70;99.90
46676;DHT22;32412;51.478;5.694;2024-01-30T14:27:29;11.70;99.90
46676;DHT22;32412;51.478;5.694;2024-01-30T14:29:56;11.60;99.90
46676;DHT22;32412;51.478;5.694;2024-01-30T14:32:22;11.50;99.90
46676;DHT22;32412;51.478;5.694;2024-01-30T14:34:49;11.50;99.90
46676;DHT22;32412;51.478;5.694;2024-01-30T14:37:15;11.50;99.90
46676;DHT22;32412;51.478;5.694;2024-01-30T14:39:40;11.40;99.90
46676;DHT22;32412;51.478;5.694;2024-01-30T14:42:07;11.40;99.90
46676;DHT22;32412;51.478;5.694;2024-01-30T14:44:32;11.30;99.90
46676;DHT22;32412;51.478;5.694;2024-01-30T14:46:59;11.30;99.90
46676;DHT22;32412;51.478;5.694;2024-01-30T14:49:25;11.20;99.90
46676;DHT22;32412;51.478;5.694;2024-01-30T14:51:51;11.20;99.90
46676;DHT22;32412;51.478;5.694;2024-01-30T14:54:17;11.20;99.90
46676;DHT22;32412;51.478;5.694;2024-01-30T14:56:42;11.20;99.90
46676;DHT22;32412;51.478;5.694;2024-01-30T14:59:08;11.10;99.90
46676;DHT22;32412;51.478;5.694;2024-01-30T15:01:33;11.10;99.90
46676;DHT22;32412;51.478;5.694;2024-01-30T15:03:59;11.10;99.90
46676;DHT22;32412;51.478;5.694;2024-01-30T15:06:25;11.00;99.90
46676;DHT22;32412;51.478;5.694;2024-01-30T15:08:51;11.00;99.90
46676;DHT22;32412;51.478;5.694;2024-01-30T15:11:17;10.80;99.90
46676;DHT22;32412;51.478;5.694;2024-01-30T15:13:43;10.70;99.90
46676;DHT22;32412;51.478;5.694;2024-01-30T15:16:08;10.50;99.90
46676;DHT22;32412;51.478;5.694;2024-01-30T15:18:34;10.50;99.90
46676;DHT22;32412;51.478;5.694;2024-01-30T15:21:00;10.40;99.90
46676;DHT22;32412;51.478;5.694;2024-01-30T15:23:26;10.40;99.90
46676;DHT22;32412;51.478;5.694;2024-01-30T15:25:51;10.30;99.90
46676;DHT22;32412;51.478;5.694;2024-01-30T15:28:17;10.20;99.90
46676;DHT22;32412;51.478;5.694;2024-01-30T15:30:42;10.10;99.90
46676;DHT22;32412;51.478;5.694;2024-01-30T15:33:11;10.00;99.90
46676;DHT22;32412;51.478;5.694;2024-01-30T15:35:37;9.90;99.90
46676;DHT22;32412;51.478;5.694;2024-01-30T15:38:04;9.80;99.90
46676;DHT22;32412;51.478;5.694;2024-01-30T15:40:34;9.70;99.90
46676;DHT22;32412;51.478;5.694;2024-01-30T15:42:59;9.60;99.90
46676;DHT22;32412;51.478;5.694;2024-01-30T15:45:25;9.50;99.90
46676;DHT22;32412;51.478;5.694;2024-01-30T15:47:51;9.40;99.90
46676;DHT22;32412;51.478;5.694;2024-01-30T15:50:17;9.30;99.90
46676;DHT22;32412;51.478;5.694;2024-01-30T15:52:42;9.30;99.90
46676;DHT22;32412;51.478;5.694;2024-01-30T15:55:08;9.30;99.90
46676;DHT22;32412;51.478;5.694;2024-01-30T15:57:34;9.30;99.90
46676;DHT22;32412;51.478;5.694;2024-01-30T15:59:59;9.30;99.90